sensor_id;sensor_type;location;lat;lon;timestamp;pressure;altitude;pressure_sealevel;temperature;humidity
51195;BME280;37259;49.972;19.850;2022-10-23T00:00:58;99010;;;13;88.9
51195;BME280;37259;49.972;19.850;2022-10-23T00:01:58;99020;;;13;88.8
51195;BME280;37259;49.972;19.850;2022-10-23T00:02:58;99020;;;13;88.8
51195;BME280;37259;49.972;19.850;2022-10-23T00:04:02;99020;;;13;88.8
51195;BME280;37259;49.972;19.850;2022-10-23T00:04:58;99020;;;13;88.8
51195;BME280;37259;49.972;19.850;2022-10-23T00:05:58;99020;;;13;88.8
51195;BME280;37259;49.972;19.850;2022-10-23T00:06:58;99020;;;13;88.8
51195;BME280;37259;49.972;19.850;2022-10-23T00:07:58;99020;;;13;88.8
51195;BME280;37259;49.972;19.850;2022-10-23T00:08:59;99020;;;13.1;88.7
51195;BME280;37259;49.972;19.850;2022-10-23T00:09:58;99020;;;13.1;88.7
51195;BME280;37259;49.972;19.850;2022-10-23T00:10:58;99030;;;13.1;88.6
51195;BME280;37259;49.972;19.850;2022-10-23T00:11:58;99030;;;13.1;88.6
51195;BME280;37259;49.972;19.850;2022-10-23T00:12:58;99030;;;13.1;88.6
51195;BME280;37259;49.972;19.850;2022-10-23T00:13:59;99030;;;13.1;88.6
51195;BME280;37259;49.972;19.850;2022-10-23T00:14:58;99030;;;13.1;88.6
51195;BME280;37259;49.972;19.850;2022-10-23T00:15:58;99030;;;13.1;88.6
51195;BME280;37259;49.972;19.850;2022-10-23T00:16:58;99030;;;13.1;88.6
51195;BME280;37259;49.972;19.850;2022-10-23T00:17:58;99030;;;13.1;88.6
51195;BME280;37259;49.972;19.850;2022-10-23T00:18:58;99030;;;13.1;88.5
51195;BME280;37259;49.972;19.850;2022-10-23T00:19:58;99030;;;13.1;88.5
51195;BME280;37259;49.972;19.850;2022-10-23T00:20:59;99030;;;13.1;88.4
51195;BME280;37259;49.972;19.850;2022-10-23T00:21:58;99030;;;13.1;88.4
51195;BME280;37259;49.972;19.850;2022-10-23T00:22:58;99040;;;13.1;88.3
51195;BME280;37259;49.972;19.850;2022-10-23T00:23:58;99040;;;13.1;88.3
51195;BME280;37259;49.972;19.850;2022-10-23T00:24:58;99040;;;13.1;88.2
51195;BME280;37259;49.972;19.850;2022-10-23T00:25:58;99040;;;13.1;88.2
51195;BME280;37259;49.972;19.850;2022-10-23T00:26:58;99040;;;13.1;88.2
51195;BME280;37259;49.972;19.850;2022-10-23T00:27:58;99040;;;13.1;88.2
51195;BME280;37259;49.972;19.850;2022-10-23T00:28:58;99040;;;13;88.3
51195;BME280;37259;49.972;19.850;2022-10-23T00:29:58;99040;;;13;88.3
51195;BME280;37259;49.972;19.850;2022-10-23T00:31:00;99040;;;13;88.3
51195;BME280;37259;49.972;19.850;2022-10-23T00:31:58;99050;;;13;88.4
51195;BME280;37259;49.972;19.850;2022-10-23T00:32:58;99050;;;13.1;88.4
51195;BME280;37259;49.972;19.850;2022-10-23T00:33:58;99050;;;13.1;88.4
51195;BME280;37259;49.972;19.850;2022-10-23T00:34:58;99050;;;13.1;88.4
51195;BME280;37259;49.972;19.850;2022-10-23T00:35:58;99050;;;13.1;88.5
51195;BME280;37259;49.972;19.850;2022-10-23T00:36:58;99050;;;13.1;88.5
51195;BME280;37259;49.972;19.850;2022-10-23T00:37:58;99050;;;13.1;88.4
51195;BME280;37259;49.972;19.850;2022-10-23T00:38:58;99050;;;13.1;88.4
51195;BME280;37259;49.972;19.850;2022-10-23T00:39:58;99050;;;13.1;88.3
51195;BME280;37259;49.972;19.850;2022-10-23T00:40:58;99050;;;13.1;88.3
51195;BME280;37259;49.972;19.850;2022-10-23T00:41:58;99060;;;13.1;88.2
51195;BME280;37259;49.972;19.850;2022-10-23T00:42:58;99060;;;13.1;88.3
51195;BME280;37259;49.972;19.850;2022-10-23T00:44:00;99060;;;13.1;88.3
51195;BME280;37259;49.972;19.850;2022-10-23T00:45:16;99060;;;13.1;88.3
51195;BME280;37259;49.972;19.850;2022-10-23T00:45:58;99060;;;13.1;88.3
51195;BME280;37259;49.972;19.850;2022-10-23T00:46:58;99060;;;13.1;88.3
51195;BME280;37259;49.972;19.850;2022-10-23T00:47:58;99060;;;13.1;88.3
51195;BME280;37259;49.972;19.850;2022-10-23T00:48:58;99060;;;13.1;88.3
51195;BME280;37259;49.972;19.850;2022-10-23T00:49:58;99060;;;13.1;88.3
51195;BME280;37259;49.972;19.850;2022-10-23T00:50:58;99060;;;13.1;88.3
51195;BME280;37259;49.972;19.850;2022-10-23T00:52:00;99060;;;13.1;88.2
51195;BME280;37259;49.972;19.850;2022-10-23T00:52:59;99060;;;13.1;88.2
51195;BME280;37259;49.972;19.850;2022-10-23T00:53:58;99060;;;13.1;88.1
51195;BME280;37259;49.972;19.850;2022-10-23T00:54:58;99060;;;13.1;88.1
51195;BME280;37259;49.972;19.850;2022-10-23T00:55:58;99060;;;13.1;88
51195;BME280;37259;49.972;19.850;2022-10-23T00:56:59;99060;;;13.1;88
51195;BME280;37259;49.972;19.850;2022-10-23T00:57:58;99070;;;13;88.1
51195;BME280;37259;49.972;19.850;2022-10-23T00:58:58;99070;;;13;88.1
51195;BME280;37259;49.972;19.850;2022-10-23T00:59:58;99060;;;13;88.2
51195;BME280;37259;49.972;19.850;2022-10-23T01:00:58;99060;;;13;88.2
51195;BME280;37259;49.972;19.850;2022-10-23T01:01:58;99060;;;13;88.2
51195;BME280;37259;49.972;19.850;2022-10-23T01:02:58;99070;;;13;88.2
51195;BME280;37259;49.972;19.850;2022-10-23T01:03:59;99070;;;13;88.2
51195;BME280;37259;49.972;19.850;2022-10-23T01:04:58;99070;;;13;88.2
51195;BME280;37259;49.972;19.850;2022-10-23T01:05:59;99070;;;13;88.2
51195;BME280;37259;49.972;19.850;2022-10-23T01:07:00;99070;;;13;88.2
51195;BME280;37259;49.972;19.850;2022-10-23T01:08:00;99070;;;13;88.2
51195;BME280;37259;49.972;19.850;2022-10-23T01:09:00;99070;;;13;88.2
51195;BME280;37259;49.972;19.850;2022-10-23T01:10:00;99060;;;13;88.3
51195;BME280;37259;49.972;19.850;2022-10-23T01:11:00;99060;;;12.9;88.2
51195;BME280;37259;49.972;19.850;2022-10-23T01:12:00;99060;;;12.9;88.3
51195;BME280;37259;49.972;19.850;2022-10-23T01:12:59;99060;;;12.9;88.3
51195;BME280;37259;49.972;19.850;2022-10-23T01:13:59;99060;;;13;88.3
51195;BME280;37259;49.972;19.850;2022-10-23T01:15:00;99060;;;13;88.3
51195;BME280;37259;49.972;19.850;2022-10-23T01:16:00;99070;;;13;88.3
51195;BME280;37259;49.972;19.850;2022-10-23T01:16:59;99060;;;13;88.2
51195;BME280;37259;49.972;19.850;2022-10-23T01:18:00;99060;;;13;88.2
51195;BME280;37259;49.972;19.850;2022-10-23T01:19:00;99060;;;13;88.2
51195;BME280;37259;49.972;19.850;2022-10-23T01:20:01;99060;;;13;88.2
51195;BME280;37259;49.972;19.850;2022-10-23T01:20:59;99060;;;13;88.2
51195;BME280;37259;49.972;19.850;2022-10-23T01:21:59;99060;;;13;88.2
51195;BME280;37259;49.972;19.850;2022-10-23T01:23:03;99070;;;13;88.2
51195;BME280;37259;49.972;19.850;2022-10-23T01:24:02;99070;;;13;88.2
51195;BME280;37259;49.972;19.850;2022-10-23T01:24:59;99070;;;13;88.2
51195;BME280;37259;49.972;19.850;2022-10-23T01:26:01;99070;;;13;88.2
51195;BME280;37259;49.972;19.850;2022-10-23T01:27:59;99070;;;13;88.3
51195;BME280;37259;49.972;19.850;2022-10-23T01:28:59;99080;;;13;88.1
51195;BME280;37259;49.972;19.850;2022-10-23T01:30:01;99080;;;13;88.1
51195;BME280;37259;49.972;19.850;2022-10-23T01:30:58;99080;;;13;88.1
51195;BME280;37259;49.972;19.850;2022-10-23T01:32:00;99080;;;13;88.1
51195;BME280;37259;49.972;19.850;2022-10-23T01:32:59;99080;;;13;88.1
51195;BME280;37259;49.972;19.850;2022-10-23T01:34:05;99080;;;13;88.1
51195;BME280;37259;49.972;19.850;2022-10-23T01:35:00;99080;;;13;88.1
51195;BME280;37259;49.972;19.850;2022-10-23T01:35:59;99070;;;13;88.1
51195;BME280;37259;49.972;19.850;2022-10-23T01:36:58;99070;;;13.1;88.1
51195;BME280;37259;49.972;19.850;2022-10-23T01:38:00;99070;;;13.1;88.1
51195;BME280;37259;49.972;19.850;2022-10-23T01:39:01;99070;;;13.1;88
51195;BME280;37259;49.972;19.850;2022-10-23T01:39:59;99070;;;13.1;88
51195;BME280;37259;49.972;19.850;2022-10-23T01:40:59;99070;;;13.1;88
51195;BME280;37259;49.972;19.850;2022-10-23T01:41:59;99070;;;13.1;88
51195;BME280;37259;49.972;19.850;2022-10-23T01:43:00;99070;;;13.1;88
51195;BME280;37259;49.972;19.850;2022-10-23T01:43:59;99070;;;13.1;88
51195;BME280;37259;49.972;19.850;2022-10-23T01:44:59;99070;;;13.1;88
51195;BME280;37259;49.972;19.850;2022-10-23T01:45:59;99070;;;13.1;87.9
51195;BME280;37259;49.972;19.850;2022-10-23T01:46:58;99070;;;13.1;87.9
51195;BME280;37259;49.972;19.850;2022-10-23T01:47:58;99070;;;13.1;87.9
51195;BME280;37259;49.972;19.850;2022-10-23T01:48:58;99070;;;13.1;87.8
51195;BME280;37259;49.972;19.850;2022-10-23T01:49:58;99070;;;13.1;87.8
51195;BME280;37259;49.972;19.850;2022-10-23T01:50:59;99070;;;13.1;87.8
51195;BME280;37259;49.972;19.850;2022-10-23T01:52:00;99070;;;13.1;87.7
51195;BME280;37259;49.972;19.850;2022-10-23T01:52:58;99070;;;13.1;87.7
51195;BME280;37259;49.972;19.850;2022-10-23T01:53:58;99070;;;13.1;87.7
51195;BME280;37259;49.972;19.850;2022-10-23T01:54:58;99070;;;13.1;87.7
51195;BME280;37259;49.972;19.850;2022-10-23T01:55:59;99070;;;13.1;87.7
51195;BME280;37259;49.972;19.850;2022-10-23T01:56:58;99070;;;13.1;87.7
51195;BME280;37259;49.972;19.850;2022-10-23T01:57:58;99070;;;13.1;87.6
51195;BME280;37259;49.972;19.850;2022-10-23T01:58:59;99070;;;13.1;87.6
51195;BME280;37259;49.972;19.850;2022-10-23T02:00:00;99060;;;13.1;87.6
51195;BME280;37259;49.972;19.850;2022-10-23T02:01:00;99060;;;13.1;87.6
51195;BME280;37259;49.972;19.850;2022-10-23T02:01:58;99080;;;13.1;87.6
51195;BME280;37259;49.972;19.850;2022-10-23T02:02:58;99080;;;13.1;87.5
51195;BME280;37259;49.972;19.850;2022-10-23T02:03:58;99080;;;13.1;87.6
51195;BME280;37259;49.972;19.850;2022-10-23T02:04:59;99080;;;13.1;87.6
51195;BME280;37259;49.972;19.850;2022-10-23T02:05:58;99080;;;13.1;87.5
51195;BME280;37259;49.972;19.850;2022-10-23T02:06:58;99080;;;13.1;87.5
51195;BME280;37259;49.972;19.850;2022-10-23T02:07:58;99080;;;13.1;87.5
51195;BME280;37259;49.972;19.850;2022-10-23T02:08:58;99090;;;13.1;87.5
51195;BME280;37259;49.972;19.850;2022-10-23T02:09:58;99090;;;13.1;87.5
51195;BME280;37259;49.972;19.850;2022-10-23T02:11:02;99090;;;13.1;87.5
51195;BME280;37259;49.972;19.850;2022-10-23T02:11:59;99090;;;13.1;87.5
51195;BME280;37259;49.972;19.850;2022-10-23T02:12:59;99090;;;13.1;87.5
51195;BME280;37259;49.972;19.850;2022-10-23T02:14:00;99090;;;13.1;87.5
51195;BME280;37259;49.972;19.850;2022-10-23T02:15:00;99090;;;13.1;87.5
51195;BME280;37259;49.972;19.850;2022-10-23T02:16:00;99090;;;13.1;87.5
51195;BME280;37259;49.972;19.850;2022-10-23T02:16:59;99090;;;13.1;87.5
51195;BME280;37259;49.972;19.850;2022-10-23T02:18:02;99090;;;13.1;87.5
51195;BME280;37259;49.972;19.850;2022-10-23T02:19:00;99090;;;13.1;87.5
51195;BME280;37259;49.972;19.850;2022-10-23T02:19:59;99100;;;13.1;87.5
51195;BME280;37259;49.972;19.850;2022-10-23T02:20:59;99100;;;13.1;87.5
51195;BME280;37259;49.972;19.850;2022-10-23T02:21:59;99090;;;13.1;87.4
51195;BME280;37259;49.972;19.850;2022-10-23T02:22:59;99090;;;13.1;87.4
51195;BME280;37259;49.972;19.850;2022-10-23T02:24:00;99100;;;13.1;87.4
51195;BME280;37259;49.972;19.850;2022-10-23T02:24:58;99100;;;13.1;87.4
51195;BME280;37259;49.972;19.850;2022-10-23T02:25:59;99100;;;13.1;87.4
51195;BME280;37259;49.972;19.850;2022-10-23T02:26:59;99100;;;13.1;87.4
51195;BME280;37259;49.972;19.850;2022-10-23T02:27:59;99100;;;13.1;87.3
51195;BME280;37259;49.972;19.850;2022-10-23T02:28:59;99100;;;13;87.2
51195;BME280;37259;49.972;19.850;2022-10-23T02:29:59;99100;;;13;87.2
51195;BME280;37259;49.972;19.850;2022-10-23T02:30:58;99090;;;13;87.2
51195;BME280;37259;49.972;19.850;2022-10-23T02:31:58;99090;;;13;87.2
51195;BME280;37259;49.972;19.850;2022-10-23T02:32:58;99100;;;13;87.2
51195;BME280;37259;49.972;19.850;2022-10-23T02:33:58;99090;;;12.9;87.2
51195;BME280;37259;49.972;19.850;2022-10-23T02:34:58;99090;;;12.9;87.2
51195;BME280;37259;49.972;19.850;2022-10-23T02:35:58;99100;;;12.9;87.2
51195;BME280;37259;49.972;19.850;2022-10-23T02:36:58;99100;;;12.9;87.2
51195;BME280;37259;49.972;19.850;2022-10-23T02:37:59;99100;;;12.9;87.2
51195;BME280;37259;49.972;19.850;2022-10-23T02:38:58;99100;;;12.9;87.3
51195;BME280;37259;49.972;19.850;2022-10-23T02:39:58;99100;;;12.9;87.3
51195;BME280;37259;49.972;19.850;2022-10-23T02:41:02;99100;;;12.9;87.3
51195;BME280;37259;49.972;19.850;2022-10-23T02:41:59;99100;;;12.9;87.3
51195;BME280;37259;49.972;19.850;2022-10-23T02:43:00;99100;;;12.9;87.3
51195;BME280;37259;49.972;19.850;2022-10-23T02:44:01;99100;;;12.9;87.3
51195;BME280;37259;49.972;19.850;2022-10-23T02:45:01;99100;;;12.9;87.2
51195;BME280;37259;49.972;19.850;2022-10-23T02:45:59;99100;;;12.9;87.2
51195;BME280;37259;49.972;19.850;2022-10-23T02:47:01;99100;;;12.8;87.1
51195;BME280;37259;49.972;19.850;2022-10-23T02:47:58;99100;;;12.8;87.1
51195;BME280;37259;49.972;19.850;2022-10-23T02:49:00;99100;;;12.8;87.1
51195;BME280;37259;49.972;19.850;2022-10-23T02:50:00;99110;;;12.8;87.1
51195;BME280;37259;49.972;19.850;2022-10-23T02:51:00;99110;;;12.8;87.1
51195;BME280;37259;49.972;19.850;2022-10-23T02:52:01;99100;;;12.7;87
51195;BME280;37259;49.972;19.850;2022-10-23T02:53:02;99110;;;12.7;87
51195;BME280;37259;49.972;19.850;2022-10-23T02:54:00;99110;;;12.7;87
51195;BME280;37259;49.972;19.850;2022-10-23T02:55:02;99110;;;12.7;87
51195;BME280;37259;49.972;19.850;2022-10-23T02:55:59;99110;;;12.7;87
51195;BME280;37259;49.972;19.850;2022-10-23T02:57:00;99110;;;12.7;87.1
51195;BME280;37259;49.972;19.850;2022-10-23T02:58:00;99110;;;12.7;87.1
51195;BME280;37259;49.972;19.850;2022-10-23T02:58:58;99110;;;12.7;87.1
51195;BME280;37259;49.972;19.850;2022-10-23T03:00:00;99110;;;12.7;87.1
51195;BME280;37259;49.972;19.850;2022-10-23T03:00:59;99110;;;12.7;87.2
51195;BME280;37259;49.972;19.850;2022-10-23T03:02:02;99110;;;12.7;87.2
51195;BME280;37259;49.972;19.850;2022-10-23T03:02:59;99110;;;12.7;87.2
51195;BME280;37259;49.972;19.850;2022-10-23T03:03:58;99120;;;12.7;87.2
51195;BME280;37259;49.972;19.850;2022-10-23T03:04:58;99120;;;12.7;87.2
51195;BME280;37259;49.972;19.850;2022-10-23T03:05:58;99120;;;12.7;87.2
51195;BME280;37259;49.972;19.850;2022-10-23T03:06:58;99120;;;12.7;87.2
51195;BME280;37259;49.972;19.850;2022-10-23T03:07:58;99120;;;12.7;87.2
51195;BME280;37259;49.972;19.850;2022-10-23T03:08:59;99120;;;12.7;87.2
51195;BME280;37259;49.972;19.850;2022-10-23T03:09:58;99120;;;12.7;87.2
51195;BME280;37259;49.972;19.850;2022-10-23T03:10:58;99120;;;12.7;87.2
51195;BME280;37259;49.972;19.850;2022-10-23T03:11:58;99120;;;12.7;87.3
51195;BME280;37259;49.972;19.850;2022-10-23T03:12:58;99120;;;12.6;87.3
51195;BME280;37259;49.972;19.850;2022-10-23T03:13:58;99120;;;12.6;87.3
51195;BME280;37259;49.972;19.850;2022-10-23T03:14:58;99120;;;12.6;87.4
51195;BME280;37259;49.972;19.850;2022-10-23T03:15:58;99120;;;12.6;87.4
51195;BME280;37259;49.972;19.850;2022-10-23T03:16:58;99120;;;12.6;87.4
51195;BME280;37259;49.972;19.850;2022-10-23T03:17:58;99120;;;12.6;87.4
51195;BME280;37259;49.972;19.850;2022-10-23T03:18:58;99120;;;12.6;87.4
51195;BME280;37259;49.972;19.850;2022-10-23T03:19:58;99120;;;12.6;87.4
51195;BME280;37259;49.972;19.850;2022-10-23T03:20:58;99120;;;12.6;87.5
51195;BME280;37259;49.972;19.850;2022-10-23T03:21:58;99120;;;12.6;87.5
51195;BME280;37259;49.972;19.850;2022-10-23T03:22:58;99130;;;12.6;87.5
51195;BME280;37259;49.972;19.850;2022-10-23T03:23:58;99130;;;12.6;87.6
51195;BME280;37259;49.972;19.850;2022-10-23T03:24:58;99130;;;12.6;87.6
51195;BME280;37259;49.972;19.850;2022-10-23T03:25:58;99130;;;12.6;87.6
51195;BME280;37259;49.972;19.850;2022-10-23T03:26:58;99130;;;12.6;87.6
51195;BME280;37259;49.972;19.850;2022-10-23T03:27:58;99130;;;12.6;87.6
51195;BME280;37259;49.972;19.850;2022-10-23T03:28:58;99130;;;12.6;87.6
51195;BME280;37259;49.972;19.850;2022-10-23T03:29:58;99120;;;12.6;87.6
51195;BME280;37259;49.972;19.850;2022-10-23T03:30:58;99120;;;12.6;87.6
51195;BME280;37259;49.972;19.850;2022-10-23T03:31:58;99120;;;12.6;87.6
51195;BME280;37259;49.972;19.850;2022-10-23T03:32:58;99130;;;12.6;87.6
51195;BME280;37259;49.972;19.850;2022-10-23T03:33:58;99130;;;12.6;87.6
51195;BME280;37259;49.972;19.850;2022-10-23T03:34:58;99130;;;12.6;87.6
51195;BME280;37259;49.972;19.850;2022-10-23T03:35:58;99130;;;12.6;87.7
51195;BME280;37259;49.972;19.850;2022-10-23T03:36:58;99130;;;12.6;87.7
51195;BME280;37259;49.972;19.850;2022-10-23T03:37:58;99120;;;12.6;87.7
51195;BME280;37259;49.972;19.850;2022-10-23T03:38:58;99120;;;12.6;87.7
51195;BME280;37259;49.972;19.850;2022-10-23T03:39:58;99130;;;12.5;87.8
51195;BME280;37259;49.972;19.850;2022-10-23T03:40:58;99120;;;12.6;87.8
51195;BME280;37259;49.972;19.850;2022-10-23T03:41:58;99120;;;12.6;87.8
51195;BME280;37259;49.972;19.850;2022-10-23T03:42:58;99120;;;12.6;87.8
51195;BME280;37259;49.972;19.850;2022-10-23T03:43:58;99120;;;12.6;87.8
51195;BME280;37259;49.972;19.850;2022-10-23T03:44:58;99130;;;12.6;87.8
51195;BME280;37259;49.972;19.850;2022-10-23T03:45:58;99130;;;12.5;87.7
51195;BME280;37259;49.972;19.850;2022-10-23T03:46:58;99130;;;12.5;87.7
51195;BME280;37259;49.972;19.850;2022-10-23T03:47:58;99130;;;12.5;87.7
51195;BME280;37259;49.972;19.850;2022-10-23T03:48:58;99130;;;12.5;87.7
51195;BME280;37259;49.972;19.850;2022-10-23T03:49:58;99130;;;12.5;87.7
51195;BME280;37259;49.972;19.850;2022-10-23T03:50:58;99130;;;12.5;87.7
51195;BME280;37259;49.972;19.850;2022-10-23T03:51:58;99130;;;12.4;87.7
51195;BME280;37259;49.972;19.850;2022-10-23T03:52:58;99130;;;12.4;87.7
51195;BME280;37259;49.972;19.850;2022-10-23T03:53:58;99130;;;12.4;87.7
51195;BME280;37259;49.972;19.850;2022-10-23T03:54:58;99140;;;12.4;87.8
51195;BME280;37259;49.972;19.850;2022-10-23T03:55:58;99140;;;12.4;87.8
51195;BME280;37259;49.972;19.850;2022-10-23T03:56:58;99130;;;12.4;87.9
51195;BME280;37259;49.972;19.850;2022-10-23T03:57:58;99130;;;12.4;87.9
51195;BME280;37259;49.972;19.850;2022-10-23T03:58:58;99140;;;12.4;88
51195;BME280;37259;49.972;19.850;2022-10-23T03:59:58;99140;;;12.4;88
51195;BME280;37259;49.972;19.850;2022-10-23T04:00:58;99140;;;12.4;88.1
51195;BME280;37259;49.972;19.850;2022-10-23T04:01:58;99140;;;12.4;88.2
51195;BME280;37259;49.972;19.850;2022-10-23T04:02:58;99140;;;12.4;88.2
51195;BME280;37259;49.972;19.850;2022-10-23T04:03:58;99130;;;12.4;88.2
51195;BME280;37259;49.972;19.850;2022-10-23T04:04:58;99130;;;12.4;88.2
51195;BME280;37259;49.972;19.850;2022-10-23T04:05:58;99130;;;12.4;88.2
51195;BME280;37259;49.972;19.850;2022-10-23T04:06:58;99130;;;12.4;88.2
51195;BME280;37259;49.972;19.850;2022-10-23T04:07:58;99130;;;12.4;88.2
51195;BME280;37259;49.972;19.850;2022-10-23T04:08:58;99130;;;12.4;88.2
51195;BME280;37259;49.972;19.850;2022-10-23T04:09:58;99130;;;12.4;88.2
51195;BME280;37259;49.972;19.850;2022-10-23T04:10:58;99130;;;12.4;88.1
51195;BME280;37259;49.972;19.850;2022-10-23T04:11:58;99130;;;12.4;88.1
51195;BME280;37259;49.972;19.850;2022-10-23T04:12:58;99130;;;12.4;88
51195;BME280;37259;49.972;19.850;2022-10-23T04:13:58;99130;;;12.4;87.9
51195;BME280;37259;49.972;19.850;2022-10-23T04:14:58;99130;;;12.4;87.9
51195;BME280;37259;49.972;19.850;2022-10-23T04:15:58;99130;;;12.3;87.7
51195;BME280;37259;49.972;19.850;2022-10-23T04:16:58;99130;;;12.3;87.7
51195;BME280;37259;49.972;19.850;2022-10-23T04:17:58;99130;;;12.2;87.6
51195;BME280;37259;49.972;19.850;2022-10-23T04:18:58;99130;;;12.2;87.5
51195;BME280;37259;49.972;19.850;2022-10-23T04:19:58;99130;;;12.2;87.5
51195;BME280;37259;49.972;19.850;2022-10-23T04:20:58;99130;;;12.2;87.5
51195;BME280;37259;49.972;19.850;2022-10-23T04:21:58;99130;;;12.2;87.5
51195;BME280;37259;49.972;19.850;2022-10-23T04:22:58;99140;;;12.1;87.3
51195;BME280;37259;49.972;19.850;2022-10-23T04:23:58;99140;;;12.1;87.3
51195;BME280;37259;49.972;19.850;2022-10-23T04:24:58;99140;;;12.1;87.3
51195;BME280;37259;49.972;19.850;2022-10-23T04:25:58;99140;;;12;87.3
51195;BME280;37259;49.972;19.850;2022-10-23T04:26:58;99140;;;12;87.4
51195;BME280;37259;49.972;19.850;2022-10-23T04:27:58;99140;;;12;87.4
51195;BME280;37259;49.972;19.850;2022-10-23T04:28:58;99140;;;12;87.6
51195;BME280;37259;49.972;19.850;2022-10-23T04:29:58;99140;;;12;87.6
51195;BME280;37259;49.972;19.850;2022-10-23T04:30:58;99140;;;12.1;87.6
51195;BME280;37259;49.972;19.850;2022-10-23T04:31:58;99140;;;12.1;87.6
51195;BME280;37259;49.972;19.850;2022-10-23T04:32:58;99140;;;12.1;87.6
51195;BME280;37259;49.972;19.850;2022-10-23T04:33:58;99140;;;12.1;87.7
51195;BME280;37259;49.972;19.850;2022-10-23T04:34:58;99140;;;12.1;87.7
51195;BME280;37259;49.972;19.850;2022-10-23T04:35:58;99140;;;12.1;87.7
51195;BME280;37259;49.972;19.850;2022-10-23T04:36:58;99140;;;12.1;87.7
51195;BME280;37259;49.972;19.850;2022-10-23T04:37:58;99140;;;12;87.7
51195;BME280;37259;49.972;19.850;2022-10-23T04:38:58;99140;;;12;87.8
51195;BME280;37259;49.972;19.850;2022-10-23T04:39:58;99140;;;12;87.8
51195;BME280;37259;49.972;19.850;2022-10-23T04:40:58;99140;;;12;87.8
51195;BME280;37259;49.972;19.850;2022-10-23T04:41:58;99140;;;12.1;87.9
51195;BME280;37259;49.972;19.850;2022-10-23T04:42:58;99140;;;12.1;87.9
51195;BME280;37259;49.972;19.850;2022-10-23T04:43:58;99140;;;12;88
51195;BME280;37259;49.972;19.850;2022-10-23T04:44:58;99140;;;12;88
51195;BME280;37259;49.972;19.850;2022-10-23T04:45:58;99140;;;12;88
51195;BME280;37259;49.972;19.850;2022-10-23T04:46:58;99140;;;12;88.2
51195;BME280;37259;49.972;19.850;2022-10-23T04:47:58;99140;;;12;88.2
51195;BME280;37259;49.972;19.850;2022-10-23T04:48:58;99140;;;12;88.2
51195;BME280;37259;49.972;19.850;2022-10-23T04:49:58;99140;;;12.1;88.3
51195;BME280;37259;49.972;19.850;2022-10-23T04:50:59;99130;;;12.1;88.3
51195;BME280;37259;49.972;19.850;2022-10-23T04:51:58;99130;;;12.1;88.3
51195;BME280;37259;49.972;19.850;2022-10-23T04:52:58;99130;;;12.1;88.3
51195;BME280;37259;49.972;19.850;2022-10-23T04:53:58;99130;;;12.1;88.3
51195;BME280;37259;49.972;19.850;2022-10-23T04:54:58;99130;;;12.1;88.3
51195;BME280;37259;49.972;19.850;2022-10-23T04:55:58;99130;;;12.1;88.3
51195;BME280;37259;49.972;19.850;2022-10-23T04:56:58;99130;;;12.1;88.3
51195;BME280;37259;49.972;19.850;2022-10-23T04:57:58;99130;;;12.1;88.3
51195;BME280;37259;49.972;19.850;2022-10-23T04:58:58;99140;;;12;88.4
51195;BME280;37259;49.972;19.850;2022-10-23T04:59:58;99140;;;12;88.4
51195;BME280;37259;49.972;19.850;2022-10-23T05:00:58;99130;;;12;88.5
51195;BME280;37259;49.972;19.850;2022-10-23T05:01:58;99130;;;12;88.5
51195;BME280;37259;49.972;19.850;2022-10-23T05:02:58;99130;;;12;88.5
51195;BME280;37259;49.972;19.850;2022-10-23T05:03:58;99130;;;12;88.5
51195;BME280;37259;49.972;19.850;2022-10-23T05:04:58;99130;;;12;88.5
51195;BME280;37259;49.972;19.850;2022-10-23T05:05:58;99120;;;12;88.4
51195;BME280;37259;49.972;19.850;2022-10-23T05:06:58;99120;;;12;88.4
51195;BME280;37259;49.972;19.850;2022-10-23T05:07:58;99130;;;11.9;88.3
51195;BME280;37259;49.972;19.850;2022-10-23T05:08:58;99130;;;11.9;88.3
51195;BME280;37259;49.972;19.850;2022-10-23T05:09:58;99130;;;11.9;88.3
51195;BME280;37259;49.972;19.850;2022-10-23T05:10:58;99120;;;11.9;88.3
51195;BME280;37259;49.972;19.850;2022-10-23T05:11:58;99120;;;11.9;88.3
51195;BME280;37259;49.972;19.850;2022-10-23T05:12:58;99120;;;11.8;88.1
51195;BME280;37259;49.972;19.850;2022-10-23T05:13:58;99120;;;11.8;88.1
51195;BME280;37259;49.972;19.850;2022-10-23T05:14:58;99130;;;11.7;88
51195;BME280;37259;49.972;19.850;2022-10-23T05:15:58;99130;;;11.7;88
51195;BME280;37259;49.972;19.850;2022-10-23T05:16:58;99130;;;11.7;88
51195;BME280;37259;49.972;19.850;2022-10-23T05:17:59;99130;;;11.7;88.1
51195;BME280;37259;49.972;19.850;2022-10-23T05:18:58;99130;;;11.7;88.1
51195;BME280;37259;49.972;19.850;2022-10-23T05:19:58;99130;;;11.7;88.1
51195;BME280;37259;49.972;19.850;2022-10-23T05:20:59;99130;;;11.7;88.1
51195;BME280;37259;49.972;19.850;2022-10-23T05:21:58;99130;;;11.7;88
51195;BME280;37259;49.972;19.850;2022-10-23T05:22:58;99130;;;11.7;88
51195;BME280;37259;49.972;19.850;2022-10-23T05:23:58;99130;;;11.6;88
51195;BME280;37259;49.972;19.850;2022-10-23T05:24:58;99130;;;11.6;88
51195;BME280;37259;49.972;19.850;2022-10-23T05:25:58;99130;;;11.6;88
51195;BME280;37259;49.972;19.850;2022-10-23T05:26:58;99130;;;11.6;88
51195;BME280;37259;49.972;19.850;2022-10-23T05:27:58;99130;;;11.6;88
51195;BME280;37259;49.972;19.850;2022-10-23T05:28:58;99130;;;11.6;88
51195;BME280;37259;49.972;19.850;2022-10-23T05:29:58;99130;;;11.6;88
51195;BME280;37259;49.972;19.850;2022-10-23T05:30:58;99130;;;11.6;88
51195;BME280;37259;49.972;19.850;2022-10-23T05:31:59;99130;;;11.6;88
51195;BME280;37259;49.972;19.850;2022-10-23T05:32:58;99130;;;11.6;88
51195;BME280;37259;49.972;19.850;2022-10-23T05:33:58;99130;;;11.6;88.1
51195;BME280;37259;49.972;19.850;2022-10-23T05:34:58;99130;;;11.6;88.2
51195;BME280;37259;49.972;19.850;2022-10-23T05:35:58;99130;;;11.6;88.2
51195;BME280;37259;49.972;19.850;2022-10-23T05:36:58;99130;;;11.6;88.2
51195;BME280;37259;49.972;19.850;2022-10-23T05:37:58;99130;;;11.6;88.3
51195;BME280;37259;49.972;19.850;2022-10-23T05:38:58;99130;;;11.7;88.3
51195;BME280;37259;49.972;19.850;2022-10-23T05:39:58;99130;;;11.7;88.4